Time;durP1;ratioP1;P1;durP2;ratioP2;P2;SDS_P1;SDS_P2;PMS_P1;PMS_P2;Temp;Humidity;BMP_temperature;BMP_pressure;BME280_temperature;BME280_humidity;BME280_pressure;Samples;Min_cycle;Max_cycle;Signal;HPM_P1;HPM_P2
2023/07/29 00:01:23;;;;;;;9.65;8.77;;;15.20;99.90;;;;;;5032476;28;20063;-71
2023/07/29 00:03:49;;;;;;;8.88;8.07;;;15.20;99.90;;;;;;5052810;28;20101;-72
2023/07/29 00:06:16;;;;;;;10.65;8.65;;;15.30;99.90;;;;;;5056773;28;20045;-71
2023/07/29 00:08:43;;;;;;;10.82;8.57;;;15.30;99.90;;;;;;5060764;28;20115;-71
2023/07/29 00:11:10;;;;;;;10.73;8.50;;;15.30;99.90;;;;;;5032413;28;20044;-71
2023/07/29 00:13:37;;;;;;;12.18;8.82;;;15.30;99.90;;;;;;5046121;28;20072;-71
2023/07/29 00:16:04;;;;;;;9.60;6.93;;;15.30;99.90;;;;;;5043053;28;20037;-72
2023/07/29 00:18:31;;;;;;;9.30;7.93;;;15.30;99.90;;;;;;5058043;28;20056;-72
2023/07/29 00:20:57;;;;;;;8.82;7.72;;;15.20;99.90;;;;;;5050613;28;20060;-73
2023/07/29 00:23:24;;;;;;;8.65;7.63;;;15.00;99.90;;;;;;5047060;28;20045;-72
2023/07/29 00:25:51;;;;;;;8.60;7.90;;;15.00;99.90;;;;;;5034384;28;20069;-72
2023/07/29 00:28:18;;;;;;;7.97;7.38;;;15.10;99.90;;;;;;5037930;28;20079;-72
2023/07/29 00:30:49;;;;;;;10.68;8.32;;;15.00;99.90;;;;;;5016927;28;20057;-72
2023/07/29 00:33:16;;;;;;;8.70;7.90;;;14.90;99.90;;;;;;5026616;28;20037;-72
2023/07/29 00:35:42;;;;;;;8.63;7.82;;;15.00;99.90;;;;;;5023479;28;20047;-72
2023/07/29 00:38:09;;;;;;;9.43;7.85;;;15.10;99.90;;;;;;5021492;28;20036;-72
2023/07/29 00:40:36;;;;;;;10.90;8.63;;;15.20;99.90;;;;;;5006665;28;20037;-72
2023/07/29 00:43:03;;;;;;;9.27;7.65;;;15.30;99.90;;;;;;5026391;28;20052;-72
2023/07/29 00:45:32;;;;;;;10.30;8.75;;;15.40;99.90;;;;;;5015447;28;20051;-72
2023/07/29 00:48:00;;;;;;;9.38;8.52;;;15.50;99.90;;;;;;5021792;28;20077;-71
2023/07/29 00:50:27;;;;;;;11.40;8.63;;;15.50;99.90;;;;;;5007001;28;20049;-71
2023/07/29 00:52:55;;;;;;;10.57;8.80;;;15.50;99.90;;;;;;5034407;28;20044;-72
2023/07/29 00:55:23;;;;;;;9.45;8.63;;;15.50;99.90;;;;;;5032166;28;20570;-70
2023/07/29 00:57:53;;;;;;;9.52;8.60;;;15.60;99.90;;;;;;5048239;28;20044;-70
2023/07/29 01:00:20;;;;;;;9.40;8.40;;;15.70;99.90;;;;;;5028536;28;20041;-71
2023/07/29 01:02:49;;;;;;;10.13;8.77;;;15.60;99.90;;;;;;5032000;28;20054;-71
2023/07/29 01:05:17;;;;;;;10.73;8.52;;;15.60;99.90;;;;;;5045137;28;20093;-70
2023/07/29 01:08:00;;;;;;;9.48;8.55;;;15.80;99.90;;;;;;5039651;28;20048;-71
2023/07/29 01:10:41;;;;;;;8.48;7.88;;;15.80;99.90;;;;;;5025077;28;20129;-71
2023/07/29 01:13:11;;;;;;;8.30;7.57;;;15.70;99.90;;;;;;5035803;28;20036;-70
2023/07/29 01:16:10;;;;;;;8.73;8.02;;;15.90;99.90;;;;;;5035140;28;20053;-70
2023/07/29 01:18:38;;;;;;;10.20;8.20;;;15.90;99.90;;;;;;5033032;28;20048;-71
2023/07/29 01:21:09;;;;;;;9.73;8.00;;;15.90;99.90;;;;;;5025617;28;20044;-70
2023/07/29 01:23:37;;;;;;;8.45;7.65;;;15.90;99.90;;;;;;5034486;28;20040;-70
2023/07/29 01:26:04;;;;;;;10.75;8.32;;;15.90;99.90;;;;;;5011889;28;20124;-70
2023/07/29 01:28:32;;;;;;;12.73;9.93;;;16.00;99.90;;;;;;5020690;28;20746;-71
2023/07/29 01:31:25;;;;;;;11.43;9.43;;;16.00;99.90;;;;;;5040311;28;20048;-70
2023/07/29 01:33:58;;;;;;;12.48;10.55;;;16.10;99.90;;;;;;5042741;28;20170;-71
2023/07/29 01:36:29;;;;;;;11.40;8.73;;;16.20;99.90;;;;;;5030883;28;20070;-69
2023/07/29 01:39:01;;;;;;;13.55;9.10;;;16.20;99.90;;;;;;5033149;28;20546;-70
2023/07/29 01:41:28;;;;;;;10.95;9.82;;;16.20;99.90;;;;;;5050656;28;20039;-70
2023/07/29 01:43:57;;;;;;;11.32;10.23;;;16.30;99.90;;;;;;5055464;28;20123;-69
2023/07/29 01:46:23;;;;;;;11.15;9.88;;;16.40;99.90;;;;;;5019339;28;20049;-70
2023/07/29 01:48:50;;;;;;;10.52;9.43;;;16.40;99.90;;;;;;5025515;28;20165;-70
2023/07/29 01:51:17;;;;;;;10.30;9.13;;;16.40;99.90;;;;;;5034646;28;20048;-70
2023/07/29 01:53:44;;;;;;;11.38;8.48;;;16.40;99.90;;;;;;5054510;28;20048;-70
2023/07/29 01:56:11;;;;;;;9.57;8.40;;;16.50;99.90;;;;;;5049990;28;20658;-69
2023/07/29 01:58:41;;;;;;;9.80;8.60;;;16.50;99.90;;;;;;5052672;28;20045;-70
2023/07/29 02:01:08;;;;;;;12.20;9.93;;;16.50;99.90;;;;;;5054914;28;20055;-70
2023/07/29 02:03:34;;;;;;;14.02;9.85;;;16.40;99.90;;;;;;5038942;28;20043;-70
2023/07/29 02:06:01;;;;;;;11.45;9.57;;;16.40;99.90;;;;;;5029930;28;20123;-71
2023/07/29 02:08:28;;;;;;;12.88;9.23;;;16.50;99.90;;;;;;5040575;28;20074;-70
2023/07/29 02:10:55;;;;;;;14.77;9.25;;;16.50;99.90;;;;;;5034871;28;20053;-70
2023/07/29 02:13:22;;;;;;;13.10;9.43;;;16.60;99.90;;;;;;5027121;28;20630;-70
2023/07/29 02:15:48;;;;;;;11.07;9.20;;;16.60;99.90;;;;;;5046748;28;20442;-70
2023/07/29 02:18:15;;;;;;;14.23;10.57;;;16.60;99.90;;;;;;5029218;28;20123;-71
2023/07/29 02:20:48;;;;;;;12.80;10.48;;;16.60;99.90;;;;;;5031751;28;20052;-70
2023/07/29 02:23:17;;;;;;;15.48;10.02;;;16.70;99.90;;;;;;5022922;28;20570;-70
2023/07/29 02:25:43;;;;;;;13.40;9.95;;;16.90;99.90;;;;;;5038976;28;20055;-70
2023/07/29 02:28:10;;;;;;;14.43;10.35;;;17.00;99.90;;;;;;5014770;28;20595;-70
2023/07/29 02:30:40;;;;;;;15.68;10.65;;;17.00;99.90;;;;;;5016540;28;20737;-70
2023/07/29 02:33:07;;;;;;;12.88;10.18;;;16.90;99.90;;;;;;5009799;28;20102;-70
2023/07/29 02:35:34;;;;;;;13.23;10.18;;;16.90;99.90;;;;;;5012878;28;20075;-70
2023/07/29 02:38:02;;;;;;;13.30;11.40;;;16.90;99.90;;;;;;5009266;28;20049;-70
2023/07/29 02:40:29;;;;;;;11.07;9.93;;;16.80;99.90;;;;;;5012364;28;20041;-71
2023/07/29 02:42:56;;;;;;;13.75;11.85;;;16.80;99.90;;;;;;5016245;28;20048;-70
2023/07/29 02:45:23;;;;;;;12.63;11.35;;;16.90;99.90;;;;;;5028091;28;20049;-70
2023/07/29 02:47:49;;;;;;;11.25;10.07;;;16.80;99.90;;;;;;5030932;28;20562;-70
2023/07/29 02:50:16;;;;;;;12.38;10.93;;;16.80;99.90;;;;;;5026020;28;20757;-70
2023/07/29 02:52:43;;;;;;;12.30;10.57;;;16.90;99.90;;;;;;5014280;28;20055;-71
2023/07/29 02:55:10;;;;;;;13.15;9.13;;;17.00;99.90;;;;;;5017372;28;20141;-71
2023/07/29 02:57:37;;;;;;;11.32;9.98;;;17.10;99.90;;;;;;5028576;28;20045;-70
2023/07/29 03:00:07;;;;;;;12.38;10.93;;;17.00;99.90;;;;;;5014274;28;20073;-70
2023/07/29 03:02:34;;;;;;;11.05;9.80;;;17.00;99.90;;;;;;5051854;28;20090;-70
2023/07/29 03:05:02;;;;;;;11.63;9.75;;;16.90;99.90;;;;;;5042796;28;20117;-70
2023/07/29 03:07:29;;;;;;;13.15;9.32;;;16.90;99.90;;;;;;5011397;28;20086;-71
2023/07/29 03:09:56;;;;;;;10.65;8.60;;;16.90;99.90;;;;;;5008576;28;20431;-71
2023/07/29 03:12:23;;;;;;;14.65;8.82;;;17.00;99.90;;;;;;5010919;28;20036;-71
2023/07/29 03:14:50;;;;;;;9.68;8.68;;;16.90;99.90;;;;;;5036362;28;20435;-70
2023/07/29 03:17:16;;;;;;;10.20;9.13;;;16.90;99.90;;;;;;5030967;28;20056;-69
2023/07/29 03:19:43;;;;;;;9.23;8.25;;;16.90;99.90;;;;;;5037181;28;20056;-69
2023/07/29 03:22:10;;;;;;;9.00;8.10;;;16.90;99.90;;;;;;5016297;28;20032;-70
2023/07/29 03:24:36;;;;;;;13.13;8.55;;;16.90;99.90;;;;;;5021513;28;20518;-70
2023/07/29 03:27:05;;;;;;;13.77;8.75;;;17.00;99.90;;;;;;5018278;28;20047;-69
2023/07/29 03:29:32;;;;;;;12.23;8.32;;;17.00;99.90;;;;;;5028374;28;20045;-69
2023/07/29 03:31:58;;;;;;;10.38;8.70;;;17.00;99.90;;;;;;5031416;28;20688;-68
2023/07/29 03:34:25;;;;;;;8.82;7.97;;;17.00;99.90;;;;;;5033809;28;20948;-69
2023/07/29 03:36:52;;;;;;;11.60;8.32;;;17.00;99.90;;;;;;5020566;28;20052;-69
2023/07/29 03:39:19;;;;;;;12.38;8.20;;;17.00;99.90;;;;;;5013231;28;20041;-69
2023/07/29 03:41:46;;;;;;;16.20;8.02;;;17.00;99.90;;;;;;5038938;28;20048;-69
2023/07/29 03:44:12;;;;;;;8.57;7.55;;;16.90;99.90;;;;;;5003604;28;20109;-69
2023/07/29 03:46:39;;;;;;;12.02;8.68;;;16.90;99.90;;;;;;5030804;28;20048;-70
2023/07/29 03:49:08;;;;;;;10.68;8.35;;;16.90;99.90;;;;;;5014968;28;20550;-67
2023/07/29 03:51:35;;;;;;;12.35;9.07;;;16.90;99.90;;;;;;5036928;28;20752;-68
2023/07/29 03:54:01;;;;;;;19.13;10.70;;;16.90;99.90;;;;;;5037099;28;20048;-67
2023/07/29 03:56:28;;;;;;;13.23;9.50;;;16.90;99.90;;;;;;5027853;28;20709;-68
2023/07/29 03:59:05;;;;;;;20.83;11.18;;;17.00;99.90;;;;;;5036183;28;20577;-68
2023/07/29 04:01:32;;;;;;;15.40;9.45;;;17.20;99.90;;;;;;5028346;28;20110;-71
2023/07/29 04:03:59;;;;;;;19.65;10.50;;;17.30;99.90;;;;;;5020631;28;20041;-70
2023/07/29 04:06:27;;;;;;;14.02;10.65;;;17.30;99.90;;;;;;5020155;28;20045;-70
2023/07/29 04:08:54;;;;;;;17.52;10.95;;;17.30;99.90;;;;;;5055325;28;20036;-69
2023/07/29 04:11:21;;;;;;;21.70;11.43;;;17.30;99.90;;;;;;5029756;28;20040;-70
2023/07/29 04:13:47;;;;;;;14.85;10.60;;;17.40;99.90;;;;;;5046818;28;20115;-68
2023/07/29 04:16:14;;;;;;;15.00;11.10;;;17.30;99.90;;;;;;5034896;28;20085;-69
2023/07/29 04:18:41;;;;;;;14.52;10.60;;;17.30;99.90;;;;;;5046932;28;20541;-69
2023/07/29 04:21:08;;;;;;;16.50;10.98;;;17.30;99.90;;;;;;5028946;28;20035;-68
2023/07/29 04:23:35;;;;;;;15.93;11.48;;;17.20;99.90;;;;;;5028524;28;20052;-71
2023/07/29 04:26:01;;;;;;;15.25;9.75;;;17.20;99.90;;;;;;5030639;28;20029;-68
2023/07/29 04:28:28;;;;;;;12.93;10.27;;;17.20;99.90;;;;;;5043247;28;20054;-70
2023/07/29 04:30:55;;;;;;;14.98;10.70;;;17.30;99.90;;;;;;5027354;28;20153;-68
2023/07/29 04:33:22;;;;;;;12.98;9.45;;;17.30;99.90;;;;;;5025371;28;20128;-71
2023/07/29 04:35:48;;;;;;;14.82;10.27;;;17.30;99.90;;;;;;5025169;28;20037;-69
2023/07/29 04:38:16;;;;;;;16.20;11.10;;;17.30;99.90;;;;;;5014107;28;20075;-69
2023/07/29 04:40:42;;;;;;;21.23;11.52;;;17.40;99.90;;;;;;5016342;28;20045;-68
2023/07/29 04:43:09;;;;;;;17.35;10.43;;;17.40;99.90;;;;;;5030758;28;20040;-69
2023/07/29 04:45:36;;;;;;;14.05;9.52;;;17.20;99.90;;;;;;5013749;28;20044;-71
2023/07/29 04:48:03;;;;;;;12.57;9.45;;;17.40;99.90;;;;;;5019581;28;20048;-70
2023/07/29 04:50:30;;;;;;;18.00;10.75;;;17.40;99.90;;;;;;5023131;28;20045;-70
2023/07/29 04:52:56;;;;;;;11.93;9.65;;;17.40;99.90;;;;;;5056734;28;20036;-69
2023/07/29 04:55:23;;;;;;;15.18;9.68;;;17.40;99.90;;;;;;5033654;28;20064;-69
2023/07/29 04:57:50;;;;;;;15.07;10.07;;;17.40;99.90;;;;;;5038275;28;20041;-70
2023/07/29 05:00:17;;;;;;;16.23;9.48;;;17.40;99.90;;;;;;5028591;28;20044;-71
2023/07/29 05:02:45;;;;;;;14.25;10.45;;;17.40;99.90;;;;;;5052670;28;20538;-71
2023/07/29 05:05:11;;;;;;;15.70;9.88;;;17.50;99.90;;;;;;5032261;28;20168;-70
2023/07/29 05:07:38;;;;;;;17.45;10.68;;;17.40;99.90;;;;;;5034850;28;20514;-70
2023/07/29 05:10:06;;;;;;;17.35;10.00;;;17.40;99.90;;;;;;5035709;28;20040;-70
2023/07/29 05:12:33;;;;;;;13.60;10.07;;;17.30;99.90;;;;;;5030952;28;20068;-70
2023/07/29 05:15:00;;;;;;;10.93;8.18;;;17.40;99.90;;;;;;5054544;28;20051;-70
2023/07/29 05:17:26;;;;;;;11.10;8.10;;;17.30;99.90;;;;;;5046838;28;20051;-70
2023/07/29 05:19:53;;;;;;;10.65;8.55;;;17.30;99.90;;;;;;5028532;28;20040;-69
2023/07/29 05:22:20;;;;;;;13.15;9.50;;;17.40;99.90;;;;;;5017625;28;20040;-69
2023/07/29 05:24:47;;;;;;;15.07;9.40;;;17.40;99.90;;;;;;5016912;28;20132;-71
2023/07/29 05:27:14;;;;;;;11.70;8.73;;;17.40;99.90;;;;;;5020004;28;20037;-69
2023/07/29 05:29:41;;;;;;;13.50;9.00;;;17.40;99.90;;;;;;5025263;28;20609;-69
2023/07/29 05:32:08;;;;;;;11.43;9.55;;;17.50;99.90;;;;;;5019237;28;20044;-71
2023/07/29 05:34:35;;;;;;;12.77;9.13;;;17.60;99.90;;;;;;5026300;28;20681;-68
2023/07/29 05:37:02;;;;;;;10.70;8.77;;;17.70;99.90;;;;;;5017735;28;20044;-70
2023/07/29 05:39:30;;;;;;;13.10;8.88;;;17.60;99.90;;;;;;5016757;28;20071;-70
2023/07/29 05:41:57;;;;;;;10.70;8.80;;;17.60;99.90;;;;;;5020058;28;20052;-70
2023/07/29 05:44:24;;;;;;;9.93;8.38;;;17.50;99.90;;;;;;5026799;28;20057;-70
2023/07/29 05:46:50;;;;;;;9.10;7.68;;;17.50;99.90;;;;;;5024556;28;20056;-71
2023/07/29 05:49:18;;;;;;;11.02;7.10;;;17.50;99.90;;;;;;5035025;28;20045;-69
2023/07/29 05:51:45;;;;;;;8.15;6.07;;;17.50;99.90;;;;;;5032352;28;20792;-70
2023/07/29 05:54:11;;;;;;;6.53;5.82;;;17.50;99.90;;;;;;5015046;28;20469;-70
2023/07/29 05:56:38;;;;;;;6.50;5.15;;;17.60;99.90;;;;;;5017287;28;20115;-70
2023/07/29 05:59:08;;;;;;;5.18;4.60;;;17.50;99.90;;;;;;5023665;28;20053;-71
2023/07/29 06:01:35;;;;;;;5.10;4.55;;;17.40;99.90;;;;;;5031145;28;20423;-70
2023/07/29 06:04:02;;;;;;;4.63;4.22;;;17.40;99.90;;;;;;5021955;28;20546;-70
2023/07/29 06:06:29;;;;;;;5.65;4.70;;;17.50;99.90;;;;;;5016110;28;20047;-69
2023/07/29 06:08:56;;;;;;;4.93;3.85;;;17.40;99.90;;;;;;5004837;28;20037;-71
2023/07/29 06:11:22;;;;;;;5.18;4.60;;;17.50;99.90;;;;;;5026953;28;20045;-71
2023/07/29 06:13:49;;;;;;;4.60;4.20;;;17.50;99.90;;;;;;5039291;28;20094;-71
2023/07/29 06:16:16;;;;;;;3.97;3.63;;;17.40;99.90;;;;;;5032421;28;20036;-71
2023/07/29 06:18:43;;;;;;;4.00;3.67;;;17.60;99.90;;;;;;5014371;28;21006;-71
2023/07/29 06:21:16;;;;;;;4.25;3.85;;;17.70;99.90;;;;;;5037011;28;20045;-71
2023/07/29 06:23:43;;;;;;;3.97;3.60;;;17.70;99.90;;;;;;5029296;28;20508;-71
2023/07/29 06:26:10;;;;;;;4.68;4.25;;;17.70;99.90;;;;;;5036176;28;20037;-70
2023/07/29 06:28:37;;;;;;;5.20;4.28;;;17.70;99.90;;;;;;5031657;28;20088;-71
2023/07/29 06:31:04;;;;;;;4.75;4.35;;;17.70;99.90;;;;;;5030858;28;20045;-70
2023/07/29 06:33:31;;;;;;;4.63;4.22;;;17.80;99.90;;;;;;5032229;28;20128;-71
2023/07/29 06:35:58;;;;;;;5.43;4.93;;;17.90;99.90;;;;;;5034880;28;20538;-70
2023/07/29 06:38:25;;;;;;;5.53;4.70;;;17.90;99.90;;;;;;5031574;28;20055;-71
2023/07/29 06:40:52;;;;;;;3.80;3.50;;;17.90;99.90;;;;;;5039004;28;20057;-71
2023/07/29 06:43:19;;;;;;;4.40;4.10;;;17.90;99.90;;;;;;5031778;28;20102;-70
2023/07/29 06:45:45;;;;;;;4.80;4.15;;;17.90;99.90;;;;;;5029453;28;20107;-69
2023/07/29 06:48:12;;;;;;;4.63;4.22;;;17.70;99.90;;;;;;5031059;28;20079;-70
2023/07/29 06:50:39;;;;;;;4.38;3.97;;;17.90;99.90;;;;;;5011605;28;20061;-71
2023/07/29 06:53:06;;;;;;;4.15;3.85;;;17.90;99.90;;;;;;5026572;28;20072;-70
2023/07/29 06:55:33;;;;;;;4.70;4.30;;;17.90;99.90;;;;;;5021199;28;20639;-71
2023/07/29 06:57:59;;;;;;;4.65;4.25;;;18.00;99.90;;;;;;5031833;28;20064;-70
2023/07/29 07:00:26;;;;;;;4.32;4.00;;;18.10;99.90;;;;;;5031764;28;20095;-71
2023/07/29 07:02:53;;;;;;;6.00;4.57;;;18.00;99.90;;;;;;5049675;28;20126;-70
2023/07/29 07:05:20;;;;;;;4.65;4.18;;;18.10;99.90;;;;;;5048686;28;20043;-71
2023/07/29 07:07:47;;;;;;;5.10;4.60;;;18.30;99.90;;;;;;5046372;28;21568;-71
2023/07/29 07:10:14;;;;;;;3.95;3.67;;;18.40;99.90;;;;;;5053649;28;20059;-70
2023/07/29 07:12:41;;;;;;;4.32;4.03;;;18.50;99.90;;;;;;5042916;28;20493;-71
2023/07/29 07:15:08;;;;;;;4.78;4.40;;;18.50;99.90;;;;;;5047896;28;20036;-70
2023/07/29 07:17:35;;;;;;;4.65;4.25;;;18.40;99.90;;;;;;5048952;28;20028;-71
2023/07/29 07:20:02;;;;;;;5.18;4.80;;;18.30;99.90;;;;;;5047777;28;20047;-70
2023/07/29 07:22:29;;;;;;;7.10;4.90;;;18.30;99.90;;;;;;5030583;28;20114;-70
2023/07/29 07:24:55;;;;;;;6.32;4.07;;;18.30;99.90;;;;;;5046842;28;20056;-70
2023/07/29 07:27:23;;;;;;;4.78;4.38;;;18.30;99.90;;;;;;5045521;28;20056;-70
2023/07/29 07:29:49;;;;;;;5.53;4.82;;;18.40;99.90;;;;;;5047694;28;20102;-68
2023/07/29 07:32:16;;;;;;;5.65;4.97;;;18.30;99.90;;;;;;5031341;28;20048;-68
2023/07/29 07:34:43;;;;;;;6.63;5.57;;;18.40;99.90;;;;;;5044317;28;20079;-69
2023/07/29 07:37:10;;;;;;;6.20;5.60;;;18.40;99.90;;;;;;5045756;28;20267;-70
2023/07/29 07:39:36;;;;;;;6.25;5.65;;;18.40;99.90;;;;;;5054220;28;20183;-68
2023/07/29 07:42:03;;;;;;;7.07;6.28;;;18.30;99.90;;;;;;5045322;28;20126;-68
2023/07/29 07:44:31;;;;;;;6.10;5.47;;;18.30;99.90;;;;;;5047322;28;20727;-71
2023/07/29 07:46:58;;;;;;;8.63;5.97;;;18.20;99.90;;;;;;5050854;28;20044;-68
2023/07/29 07:49:25;;;;;;;14.02;8.48;;;18.20;99.90;;;;;;5048164;28;20052;-69
2023/07/29 07:51:51;;;;;;;10.80;9.10;;;18.20;99.90;;;;;;5049007;28;20422;-69
2023/07/29 07:54:18;;;;;;;14.98;11.68;;;18.20;99.90;;;;;;5056439;28;20088;-68
2023/07/29 07:56:45;;;;;;;15.35;12.07;;;18.30;99.90;;;;;;5043781;28;20658;-68
2023/07/29 07:59:12;;;;;;;20.80;15.48;;;18.30;99.90;;;;;;5049089;28;20039;-69
2023/07/29 08:01:43;;;;;;;25.52;17.60;;;18.30;99.90;;;;;;5042889;28;20529;-69
2023/07/29 08:04:10;;;;;;;28.60;19.20;;;18.30;99.90;;;;;;5044616;28;20047;-69
2023/07/29 08:06:37;;;;;;;31.58;21.30;;;18.40;99.90;;;;;;5044104;28;20032;-69
2023/07/29 08:09:04;;;;;;;31.13;21.58;;;18.50;99.90;;;;;;5054484;28;20071;-69
2023/07/29 08:11:31;;;;;;;33.97;23.17;;;18.60;99.90;;;;;;5043678;28;20511;-69
2023/07/29 08:13:58;;;;;;;30.42;21.30;;;18.60;99.90;;;;;;5047701;28;20716;-68
2023/07/29 08:16:25;;;;;;;31.40;21.88;;;18.60;99.90;;;;;;5049755;28;20036;-68
2023/07/29 08:18:53;;;;;;;33.83;22.52;;;18.60;99.90;;;;;;5045759;28;20055;-69
2023/07/29 08:21:19;;;;;;;32.63;23.08;;;18.70;99.90;;;;;;5032483;28;20063;-69
2023/07/29 08:23:46;;;;;;;27.20;20.73;;;18.80;99.90;;;;;;5031288;28;20040;-70
2023/07/29 08:26:13;;;;;;;32.22;22.50;;;18.80;99.90;;;;;;5041910;28;20040;-70
2023/07/29 08:28:40;;;;;;;30.33;22.42;;;18.70;99.90;;;;;;5041799;28;20045;-69
2023/07/29 08:31:07;;;;;;;36.28;23.80;;;18.60;99.90;;;;;;5043364;28;20043;-68
2023/07/29 08:33:34;;;;;;;32.65;23.10;;;18.40;99.90;;;;;;5042198;28;20028;-70
2023/07/29 08:36:02;;;;;;;24.00;19.23;;;18.10;99.90;;;;;;5048653;28;20099;-70
2023/07/29 08:38:29;;;;;;;28.80;21.40;;;17.90;99.90;;;;;;5045478;28;20585;-70
2023/07/29 08:41:38;;;;;;;28.63;20.60;;;17.80;99.90;;;;;;5040713;28;20068;-70
2023/07/29 08:44:23;;;;;;;28.38;20.50;;;17.80;99.90;;;;;;4986652;28;20051;-70
2023/07/29 08:46:51;;;;;;;28.08;19.70;;;17.90;99.90;;;;;;5040379;28;20085;-70
2023/07/29 08:49:23;;;;;;;26.65;18.75;;;18.00;99.90;;;;;;5046879;28;20058;-70
2023/07/29 08:51:53;;;;;;;25.88;19.10;;;18.00;99.90;;;;;;5024589;28;20198;-70
2023/07/29 08:54:20;;;;;;;24.55;17.15;;;18.00;99.90;;;;;;5027006;28;20049;-70
2023/07/29 08:56:47;;;;;;;27.98;19.73;;;18.00;99.90;;;;;;5021111;28;20052;-70
2023/07/29 08:59:16;;;;;;;22.85;16.85;;;18.10;99.90;;;;;;5026156;28;20826;-70
2023/07/29 09:01:43;;;;;;;19.90;16.25;;;18.10;99.90;;;;;;5020778;28;20660;-70
2023/07/29 09:04:10;;;;;;;22.27;18.30;;;18.20;99.90;;;;;;5015661;28;20041;-70
2023/07/29 09:06:39;;;;;;;23.15;18.45;;;18.30;99.90;;;;;;5006144;28;20742;-69
2023/07/29 09:09:08;;;;;;;19.50;16.85;;;18.50;99.90;;;;;;5025166;28;20131;-68
2023/07/29 09:11:35;;;;;;;19.33;16.60;;;18.80;99.90;;;;;;5022892;28;20045;-68
2023/07/29 09:14:02;;;;;;;22.77;19.67;;;18.70;99.90;;;;;;5015973;28;20115;-68
2023/07/29 09:16:29;;;;;;;27.17;20.63;;;18.80;99.90;;;;;;5026678;28;20044;-69
2023/07/29 09:19:00;;;;;;;23.17;20.58;;;19.00;99.90;;;;;;5026128;28;20157;-70
2023/07/29 09:21:28;;;;;;;19.88;17.88;;;19.10;99.90;;;;;;5028180;28;20045;-69
2023/07/29 09:23:55;;;;;;;22.45;19.45;;;18.90;99.90;;;;;;5015095;28;21566;-69
2023/07/29 09:26:24;;;;;;;23.75;18.95;;;19.00;99.90;;;;;;5024466;28;20454;-68
2023/07/29 09:28:53;;;;;;;24.77;22.13;;;18.80;99.90;;;;;;5024790;28;20121;-69
2023/07/29 09:31:22;;;;;;;23.40;20.48;;;18.90;99.90;;;;;;5015564;28;20456;-69
2023/07/29 09:33:49;;;;;;;23.77;21.30;;;19.00;99.90;;;;;;5025840;28;20041;-70
2023/07/29 09:36:16;;;;;;;25.33;22.63;;;19.20;99.90;;;;;;5025217;28;20047;-69
2023/07/29 09:38:45;;;;;;;25.25;22.85;;;19.30;99.90;;;;;;5025978;28;20498;-70
2023/07/29 09:41:16;;;;;;;24.60;22.42;;;19.30;99.90;;;;;;5028556;28;20599;-71
2023/07/29 09:43:42;;;;;;;26.92;24.52;;;19.20;99.90;;;;;;5027995;28;20118;-71
2023/07/29 09:46:09;;;;;;;24.58;22.60;;;19.10;99.90;;;;;;5029097;28;20042;-72
2023/07/29 09:48:37;;;;;;;26.08;23.98;;;19.20;99.90;;;;;;5012960;28;20048;-69
2023/07/29 09:51:14;;;;;;;23.98;22.17;;;19.30;99.90;;;;;;5030069;28;20039;-69
2023/07/29 09:53:46;;;;;;;22.58;20.83;;;19.70;99.90;;;;;;5028411;28;20111;-70
2023/07/29 09:56:14;;;;;;;24.90;22.60;;;19.90;99.90;;;;;;5032400;28;20032;-70
2023/07/29 09:58:43;;;;;;;23.58;21.73;;;20.00;99.90;;;;;;5026154;28;20595;-70
2023/07/29 10:01:10;;;;;;;23.17;21.40;;;20.00;99.90;;;;;;5028010;28;20046;-70
2023/07/29 10:03:37;;;;;;;21.70;20.13;;;19.90;99.90;;;;;;5030637;28;20044;-71
2023/07/29 10:06:06;;;;;;;22.33;20.83;;;20.20;99.90;;;;;;5028389;28;20103;-69
2023/07/29 10:08:38;;;;;;;22.20;20.90;;;20.40;99.90;;;;;;5023902;28;20045;-70
2023/07/29 10:11:09;;;;;;;23.75;22.25;;;20.50;99.90;;;;;;5027825;28;20044;-69
2023/07/29 10:13:37;;;;;;;25.23;23.55;;;20.50;99.90;;;;;;5026097;28;20053;-70
2023/07/29 10:16:04;;;;;;;25.20;23.48;;;20.60;99.90;;;;;;5026033;28;20046;-71
2023/07/29 10:18:32;;;;;;;24.92;23.52;;;20.80;99.90;;;;;;5033112;28;20043;-70
2023/07/29 10:21:00;;;;;;;25.15;23.60;;;21.00;99.90;;;;;;5029852;28;20095;-70
2023/07/29 10:23:32;;;;;;;24.55;23.15;;;21.10;99.90;;;;;;5032250;28;20037;-70
2023/07/29 10:26:04;;;;;;;24.90;23.50;;;21.30;99.90;;;;;;5025178;28;20111;-71
2023/07/29 10:28:32;;;;;;;24.48;23.10;;;21.30;99.90;;;;;;5029003;28;20473;-72
2023/07/29 10:30:59;;;;;;;23.58;22.17;;;21.30;99.90;;;;;;5032102;28;20127;-71
2023/07/29 10:33:26;;;;;;;24.60;22.52;;;21.50;99.90;;;;;;5028320;28;20106;-71
2023/07/29 10:35:54;;;;;;;22.02;20.80;;;21.70;99.90;;;;;;5028530;28;20041;-72
2023/07/29 10:38:24;;;;;;;22.27;20.65;;;21.80;99.90;;;;;;5034977;28;20098;-71
2023/07/29 10:41:00;;;;;;;22.30;20.80;;;21.60;99.90;;;;;;5022442;28;20557;-72
2023/07/29 10:43:32;;;;;;;25.35;23.95;;;21.20;99.90;;;;;;5026924;28;20049;-72
2023/07/29 10:46:19;;;;;;;23.02;21.77;;;20.90;99.90;;;;;;5026503;28;21267;-70
2023/07/29 10:48:56;;;;;;;21.55;20.35;;;21.20;99.90;;;;;;5014529;28;20103;-71
2023/07/29 10:51:36;;;;;;;21.23;20.00;;;21.20;99.90;;;;;;5025127;28;20102;-71
2023/07/29 10:54:10;;;;;;;23.83;22.52;;;21.00;99.90;;;;;;5027003;28;20044;-71
2023/07/29 10:56:40;;;;;;;23.50;22.20;;;20.90;99.90;;;;;;5028874;28;20053;-72
2023/07/29 10:59:16;;;;;;;24.33;22.92;;;20.90;99.90;;;;;;5029136;28;20072;-72
2023/07/29 11:01:51;;;;;;;23.30;22.00;;;21.00;99.90;;;;;;5040420;28;20044;-72
2023/07/29 11:04:30;;;;;;;23.25;21.75;;;21.30;99.90;;;;;;5031472;28;20057;-72
2023/07/29 11:07:03;;;;;;;23.38;21.88;;;21.50;99.90;;;;;;5048854;28;20040;-72
2023/07/29 11:09:53;;;;;;;23.55;22.15;;;21.70;99.90;;;;;;5054437;28;20048;-72
2023/07/29 11:12:51;;;;;;;23.88;22.27;;;22.10;99.90;;;;;;5044748;28;20052;-71
2023/07/29 11:15:28;;;;;;;25.13;23.45;;;22.10;99.90;;;;;;5046800;28;20048;-72
2023/07/29 11:17:57;;;;;;;20.27;19.15;;;22.10;99.90;;;;;;5047628;28;20098;-71
2023/07/29 11:20:31;;;;;;;21.70;20.40;;;22.30;99.90;;;;;;5050301;28;20049;-71
2023/07/29 11:22:59;;;;;;;25.70;24.30;;;22.30;99.90;;;;;;5045458;28;20090;-71
2023/07/29 11:25:28;;;;;;;24.55;23.08;;;22.10;99.90;;;;;;5049904;28;20805;-71
2023/07/29 11:27:57;;;;;;;25.52;24.13;;;22.50;99.90;;;;;;5025134;28;20052;-71
2023/07/29 11:30:29;;;;;;;24.88;23.48;;;22.60;99.90;;;;;;5051067;28;20090;-72
2023/07/29 11:32:56;;;;;;;24.92;23.52;;;22.90;99.90;;;;;;5047470;28;20686;-71
2023/07/29 11:35:24;;;;;;;22.45;21.20;;;23.20;99.90;;;;;;5046605;28;20147;-71
2023/07/29 11:37:52;;;;;;;23.58;22.17;;;23.30;99.90;;;;;;5048122;28;20684;-71
2023/07/29 11:40:21;;;;;;;25.40;24.00;;;23.30;99.90;;;;;;5053228;28;20041;-71
2023/07/29 11:42:51;;;;;;;21.48;20.27;;;23.30;99.90;;;;;;5046722;28;20044;-72
2023/07/29 11:45:19;;;;;;;23.77;22.33;;;23.10;99.90;;;;;;5042492;28;20123;-71
2023/07/29 11:47:46;;;;;;;25.73;24.02;;;22.90;99.90;;;;;;5032201;28;20730;-72
2023/07/29 11:50:14;;;;;;;26.63;25.13;;;23.00;99.90;;;;;;5046347;28;20041;-72
2023/07/29 11:52:44;;;;;;;27.00;25.50;;;23.20;99.90;;;;;;5047443;28;20044;-71
2023/07/29 11:55:12;;;;;;;26.23;24.73;;;23.80;99.90;;;;;;5047063;28;20048;-70
2023/07/29 11:57:39;;;;;;;26.02;24.52;;;23.60;99.90;;;;;;5046194;28;20073;-71
2023/07/29 12:00:09;;;;;;;25.52;24.02;;;23.50;99.90;;;;;;5033190;28;20070;-70
2023/07/29 12:02:44;;;;;;;23.15;21.65;;;23.70;99.90;;;;;;5051065;28;20045;-73
2023/07/29 12:05:13;;;;;;;24.90;23.40;;;23.40;99.90;;;;;;5044963;28;20108;-71
2023/07/29 12:07:41;;;;;;;24.70;23.30;;;23.50;99.90;;;;;;5053747;28;20051;-71
2023/07/29 12:10:09;;;;;;;24.92;23.42;;;23.70;99.90;;;;;;5030733;28;20051;-71
2023/07/29 12:12:47;;;;;;;24.05;22.63;;;23.80;99.90;;;;;;5048384;28;20048;-69
2023/07/29 12:15:26;;;;;;;22.90;21.58;;;23.60;99.90;;;;;;5052281;28;20041;-71
2023/07/29 12:17:56;;;;;;;21.98;20.88;;;23.40;99.90;;;;;;5046073;28;20490;-71
2023/07/29 12:20:23;;;;;;;24.85;23.42;;;23.00;99.90;;;;;;5047607;28;20072;-71
2023/07/29 12:22:55;;;;;;;24.10;22.48;;;23.10;99.90;;;;;;5044066;28;20048;-72
2023/07/29 12:25:22;;;;;;;24.92;23.48;;;23.00;99.90;;;;;;5048283;28;20280;-71
2023/07/29 12:27:49;;;;;;;23.73;22.42;;;23.10;99.90;;;;;;5046840;28;20040;-73
2023/07/29 12:30:17;;;;;;;25.95;24.55;;;23.30;99.90;;;;;;5050245;28;20048;-71
2023/07/29 12:32:47;;;;;;;26.67;25.17;;;23.20;99.90;;;;;;5046883;28;20523;-72
2023/07/29 12:35:14;;;;;;;22.98;21.67;;;23.50;99.90;;;;;;5017538;28;20044;-73
2023/07/29 12:37:43;;;;;;;22.45;21.17;;;23.60;99.90;;;;;;5053935;28;20044;-72
2023/07/29 12:40:27;;;;;;;23.00;21.77;;;23.30;99.90;;;;;;5040698;28;20049;-72